Time;durP1;ratioP1;P1;durP2;ratioP2;P2;SDS_P1;SDS_P2;PMS_P1;PMS_P2;Temp;Humidity;BMP_temperature;BMP_pressure;BME280_temperature;BME280_humidity;BME280_pressure;Samples;Min_cycle;Max_cycle;Signal;HPM_P1;HPM_P2
2023/08/16 00:02:14;;;;;;;4.00;2.50;;;;;;;23.63;nan;99582.00;5054286;28;20227;-75
2023/08/16 00:04:39;;;;;;;2.27;2.00;;;;;;;23.62;nan;99579.50;5050101;28;20200;-75
2023/08/16 00:07:05;;;;;;;3.60;2.40;;;;;;;23.60;nan;99578.84;5049587;28;20209;-75
2023/08/16 00:09:30;;;;;;;4.27;2.60;;;;;;;23.55;nan;99574.03;5050345;28;20508;-75
2023/08/16 00:11:56;;;;;;;4.10;2.70;;;;;;;23.51;nan;99585.31;5052364;28;20329;-75
2023/08/16 00:14:22;;;;;;;3.33;2.50;;;;;;;23.48;nan;99583.00;5053063;28;20193;-75
2023/08/16 00:16:48;;;;;;;2.70;2.50;;;;;;;23.47;nan;99581.34;5050885;28;20213;-75
2023/08/16 00:19:14;;;;;;;2.43;2.23;;;;;;;23.44;nan;99585.22;5052224;28;20463;-75
2023/08/16 00:21:40;;;;;;;5.53;3.97;;;;;;;23.41;nan;99586.41;5051251;28;20570;-76
2023/08/16 00:24:06;;;;;;;2.37;2.17;;;;;;;23.37;nan;99577.03;5051627;28;20465;-75
2023/08/16 00:26:32;;;;;;;4.80;2.30;;;;;;;23.36;nan;99587.97;5048071;28;20197;-75
2023/08/16 00:28:57;;;;;;;2.70;2.50;;;;;;;23.36;nan;99588.78;5052861;28;20533;-75
2023/08/16 00:31:23;;;;;;;3.00;2.70;;;;;;;23.37;nan;99592.31;5052912;28;20197;-75
2023/08/16 00:33:48;;;;;;;4.50;2.53;;;;;;;23.36;nan;99596.00;5053937;28;20197;-75
2023/08/16 00:36:14;;;;;;;4.30;2.80;;;;;;;23.37;nan;99589.63;5050779;28;20421;-75
2023/08/16 00:38:43;;;;;;;2.60;2.17;;;;;;;23.37;nan;99589.63;5045741;28;20225;-75
2023/08/16 00:41:12;;;;;;;2.67;2.47;;;;;;;23.36;nan;99583.44;5052366;28;20452;-75
2023/08/16 00:43:39;;;;;;;3.17;2.80;;;;;;;23.33;nan;99577.59;5052427;28;20450;-75
2023/08/16 00:46:07;;;;;;;4.77;2.80;;;;;;;23.32;nan;99575.94;5041050;28;20888;-75
2023/08/16 00:48:34;;;;;;;2.27;2.07;;;;;;;23.31;nan;99572.41;5071989;28;20451;-75
2023/08/16 00:51:01;;;;;;;2.73;2.53;;;;;;;23.30;nan;99580.63;5071782;28;20442;-75
2023/08/16 00:53:29;;;;;;;5.53;2.40;;;;;;;23.28;nan;99590.72;5074646;28;20887;-75
2023/08/16 00:55:55;;;;;;;2.43;2.17;;;;;;;23.27;nan;99578.31;5055039;28;20467;-75
2023/08/16 00:58:21;;;;;;;3.43;2.60;;;;;;;23.24;nan;99573.31;5054040;28;20992;-75
2023/08/16 01:00:48;;;;;;;3.97;3.07;;;;;;;23.12;nan;99580.97;5050811;28;20509;-76
2023/08/16 01:03:13;;;;;;;3.43;2.50;;;;;;;22.97;nan;99573.69;5052676;28;20455;-75
2023/08/16 01:05:39;;;;;;;3.03;2.80;;;;;;;22.84;nan;99572.56;5072813;28;20827;-75
2023/08/16 01:08:04;;;;;;;5.00;2.87;;;;;;;22.67;nan;99578.03;5073085;28;20193;-75
2023/08/16 01:10:45;;;;;;;4.17;3.77;;;;;;;22.53;nan;99574.25;5070412;28;20203;-75
2023/08/16 01:13:15;;;;;;;3.97;3.67;;;;;;;22.49;nan;99572.09;5073171;28;20333;-75
2023/08/16 01:15:45;;;;;;;5.10;3.47;;;;;;;22.50;nan;99573.78;5051808;28;21233;-75
2023/08/16 01:18:12;;;;;;;4.60;2.40;;;;;;;22.51;nan;99572.78;5054081;28;20465;-75
2023/08/16 01:20:39;;;;;;;3.57;3.27;;;;;;;22.50;nan;99563.91;5051414;28;22255;-75
2023/08/16 01:23:07;;;;;;;4.90;3.30;;;;;;;22.40;nan;99560.63;5074209;28;20724;-75
2023/08/16 01:26:00;;;;;;;7.90;3.60;;;;;;;22.26;nan;99559.50;5074394;28;20447;-75
2023/08/16 01:28:27;;;;;;;4.70;3.77;;;;;;;22.17;nan;99557.88;5053316;28;20448;-75
2023/08/16 01:31:02;;;;;;;4.40;4.00;;;;;;;22.10;nan;99548.84;5052766;28;20882;-75
2023/08/16 01:33:28;;;;;;;4.23;3.67;;;;;;;22.01;nan;99550.72;5073520;28;20462;-75
2023/08/16 01:35:55;;;;;;;3.87;3.33;;;;;;;21.96;nan;99558.44;5070826;28;20485;-75
2023/08/16 01:38:21;;;;;;;5.20;4.00;;;;;;;21.95;nan;99559.41;5073164;28;20447;-75
2023/08/16 01:40:54;;;;;;;5.33;3.57;;;;;;;21.96;nan;99558.44;5053552;28;20295;-75
2023/08/16 01:43:20;;;;;;;3.43;2.70;;;;;;;21.99;nan;99565.28;5072925;28;20200;-75
2023/08/16 01:45:52;;;;;;;5.00;3.43;;;;;;;22.01;nan;99565.94;5075824;28;20966;-75
2023/08/16 01:48:21;;;;;;;9.43;3.70;;;;;;;22.02;nan;99568.44;5074931;28;20469;-75
2023/08/16 01:50:47;;;;;;;4.43;3.80;;;;;;;22.02;nan;99579.13;5074441;28;20446;-75
2023/08/16 01:53:12;;;;;;;2.60;2.40;;;;;;;22.03;nan;99575.44;5075153;28;20464;-75
2023/08/16 01:55:37;;;;;;;5.57;3.87;;;;;;;21.95;nan;99575.47;5056590;28;20212;-75
2023/08/16 01:58:03;;;;;;;4.80;4.10;;;;;;;21.75;nan;99588.41;5056677;28;20207;-75
2023/08/16 02:00:28;;;;;;;2.30;2.10;;;;;;;21.62;nan;99598.78;5073352;28;20885;-75
2023/08/16 02:02:54;;;;;;;3.30;3.00;;;;;;;21.51;nan;99601.78;5073038;28;20207;-76
2023/08/16 02:05:19;;;;;;;2.63;2.43;;;;;;;21.41;nan;99608.16;5074498;28;20974;-75
2023/08/16 02:07:46;;;;;;;5.73;2.97;;;;;;;21.33;nan;99620.63;5075975;28;20446;-75
2023/08/16 02:10:13;;;;;;;2.60;2.40;;;;;;;21.25;nan;99624.13;5079678;28;20236;-75
2023/08/16 02:12:38;;;;;;;3.50;2.83;;;;;;;21.18;nan;99629.31;5055135;28;20492;-75
2023/08/16 02:15:04;;;;;;;3.70;3.30;;;;;;;21.15;nan;99628.81;5057365;28;20198;-75
2023/08/16 02:17:30;;;;;;;4.77;2.80;;;;;;;21.17;nan;99626.78;5075077;28;20203;-75
2023/08/16 02:19:55;;;;;;;2.93;2.63;;;;;;;21.22;nan;99637.81;5076615;28;20900;-75
2023/08/16 02:22:20;;;;;;;2.90;2.50;;;;;;;21.26;nan;99646.38;5040632;28;20284;-75
2023/08/16 02:24:46;;;;;;;5.03;3.10;;;;;;;21.27;nan;99643.50;5058851;28;20188;-75
2023/08/16 02:27:11;;;;;;;3.30;3.00;;;;;;;21.26;nan;99647.19;5072229;28;20226;-75
2023/08/16 02:29:37;;;;;;;3.50;3.20;;;;;;;21.26;nan;99655.22;5069758;28;20591;-75
2023/08/16 02:32:03;;;;;;;3.83;3.30;;;;;;;21.29;nan;99654.88;5072693;28;20220;-75
2023/08/16 02:34:38;;;;;;;3.13;2.83;;;;;;;21.33;nan;99656.22;5073700;28;20220;-75
2023/08/16 02:37:05;;;;;;;3.97;3.37;;;;;;;21.38;nan;99656.56;5059030;28;20466;-75
2023/08/16 02:39:31;;;;;;;2.60;2.40;;;;;;;21.40;nan;99657.25;5075181;28;20488;-75
2023/08/16 02:41:57;;;;;;;4.90;3.30;;;;;;;21.40;nan;99665.25;5056186;28;20697;-75
2023/08/16 02:44:23;;;;;;;4.03;3.50;;;;;;;21.39;nan;99658.25;5055456;28;20360;-75
2023/08/16 02:46:51;;;;;;;4.13;3.30;;;;;;;21.33;nan;99650.88;5046892;28;20500;-75
2023/08/16 02:49:16;;;;;;;6.03;3.20;;;;;;;21.29;nan;99649.53;5063726;28;20448;-75
2023/08/16 02:51:41;;;;;;;4.70;3.50;;;;;;;21.28;nan;99649.69;5058927;28;20244;-75
2023/08/16 02:54:07;;;;;;;6.20;4.10;;;;;;;21.26;nan;99647.19;5041227;28;20207;-75
2023/08/16 02:56:32;;;;;;;6.57;3.63;;;;;;;21.22;nan;99640.50;5051670;28;20257;-75
2023/08/16 02:58:59;;;;;;;3.57;3.10;;;;;;;21.18;nan;99636.50;5035933;28;20254;-75
2023/08/16 03:01:24;;;;;;;5.93;4.73;;;;;;;21.17;nan;99637.47;5056035;28;20444;-75
2023/08/16 03:03:50;;;;;;;3.50;3.20;;;;;;;21.12;nan;99629.97;5061155;28;20201;-75
2023/08/16 03:06:15;;;;;;;6.13;4.73;;;;;;;21.07;nan;99620.81;5043229;28;20433;-75
2023/08/16 03:08:41;;;;;;;4.87;4.17;;;;;;;21.00;nan;99616.09;5058973;28;20858;-75
2023/08/16 03:11:06;;;;;;;6.23;4.23;;;;;;;20.93;nan;99608.94;5053122;28;20270;-75
2023/08/16 03:13:32;;;;;;;5.47;4.60;;;;;;;20.89;nan;99605.72;5038811;28;20212;-75
2023/08/16 03:15:57;;;;;;;8.03;5.43;;;;;;;20.86;nan;99606.06;5038472;28;20210;-75
2023/08/16 03:18:23;;;;;;;5.23;4.83;;;;;;;20.85;nan;99596.41;5057461;28;20242;-75
2023/08/16 03:20:48;;;;;;;6.70;4.90;;;;;;;20.85;nan;99591.06;5053661;28;20200;-75
2023/08/16 03:23:13;;;;;;;6.27;4.90;;;;;;;20.86;nan;99582.03;5056337;28;20669;-75
2023/08/16 03:25:40;;;;;;;5.40;4.90;;;;;;;20.85;nan;99575.03;5039821;28;20243;-75
2023/08/16 03:28:06;;;;;;;7.10;4.83;;;;;;;20.87;nan;99570.34;5037957;28;20218;-75
2023/08/16 03:30:31;;;;;;;6.70;5.27;;;;;;;20.89;nan;99552.34;5055127;28;20969;-75
2023/08/16 03:32:57;;;;;;;5.30;4.80;;;;;;;20.93;nan;99556.34;5052233;28;20257;-75
2023/08/16 03:35:22;;;;;;;6.60;5.20;;;;;;;20.96;nan;99542.66;5038732;28;20226;-75
2023/08/16 03:37:48;;;;;;;5.13;3.90;;;;;;;21.03;nan;99548.16;5037237;28;20567;-75
2023/08/16 03:40:14;;;;;;;5.50;5.00;;;;;;;21.03;nan;99548.16;5039666;28;20205;-75
2023/08/16 03:42:40;;;;;;;5.37;4.80;;;;;;;21.06;nan;99555.00;5039379;28;20485;-75
2023/08/16 03:45:06;;;;;;;6.00;4.50;;;;;;;21.08;nan;99555.69;5037083;28;20558;-75
2023/08/16 03:47:32;;;;;;;7.57;5.90;;;;;;;21.09;nan;99550.19;5072859;28;20566;-75
2023/08/16 03:49:59;;;;;;;7.40;5.60;;;;;;;21.12;nan;99557.03;5074059;28;20744;-75
2023/08/16 03:52:27;;;;;;;7.37;5.60;;;;;;;21.15;nan;99559.38;5052684;28;20473;-75
2023/08/16 03:54:54;;;;;;;6.13;4.77;;;;;;;21.20;nan;99559.72;5053948;28;20416;-75
2023/08/16 03:57:21;;;;;;;5.73;4.83;;;;;;;21.25;nan;99562.69;5051944;28;20461;-75
2023/08/16 03:59:47;;;;;;;5.23;4.73;;;;;;;21.28;nan;99569.53;5055231;28;20466;-75
2023/08/16 04:02:12;;;;;;;6.90;5.60;;;;;;;21.30;nan;99573.72;5072805;28;20431;-75
2023/08/16 04:04:38;;;;;;;6.40;4.90;;;;;;;21.32;nan;99574.38;5054952;28;20188;-75
2023/08/16 04:07:03;;;;;;;6.30;5.70;;;;;;;21.39;nan;99567.41;5073177;28;20494;-75
2023/08/16 04:09:29;;;;;;;7.70;4.97;;;;;;;21.38;nan;99562.22;5076091;28;20202;-75
2023/08/16 04:11:54;;;;;;;6.67;5.27;;;;;;;21.39;nan;99554.03;5074065;28;20207;-75
2023/08/16 04:14:20;;;;;;;7.27;5.10;;;;;;;21.42;nan;99559.06;5075573;28;20338;-76
2023/08/16 04:16:45;;;;;;;6.40;5.00;;;;;;;21.42;nan;99551.03;5075495;28;20709;-75
2023/08/16 04:19:10;;;;;;;5.93;5.33;;;;;;;21.44;nan;99556.19;5055351;28;20444;-75
2023/08/16 04:21:38;;;;;;;5.20;4.43;;;;;;;21.49;nan;99555.69;5073082;28;20284;-75
2023/08/16 04:24:04;;;;;;;5.30;4.80;;;;;;;21.49;nan;99559.19;5075293;28;20454;-75
2023/08/16 04:26:29;;;;;;;5.20;4.70;;;;;;;21.49;nan;99556.53;5054436;28;20457;-75
2023/08/16 04:28:55;;;;;;;4.73;4.33;;;;;;;21.47;nan;99547.88;5052696;28;20424;-75
2023/08/16 04:31:20;;;;;;;5.53;4.47;;;;;;;21.49;nan;99545.00;5055311;28;20198;-75
2023/08/16 04:33:46;;;;;;;4.53;4.03;;;;;;;21.51;nan;99548.34;5053768;28;20736;-75
2023/08/16 04:36:11;;;;;;;5.38;4.88;;;;;;;21.55;nan;99552.34;5053922;28;20932;-75
2023/08/16 04:38:37;;;;;;;4.30;3.90;;;;;;;21.59;nan;99553.69;5074466;28;20205;-75
2023/08/16 04:41:02;;;;;;;8.03;5.20;;;;;;;21.63;nan;99552.34;5072745;28;20615;-75
2023/08/16 04:43:27;;;;;;;5.13;4.20;;;;;;;21.63;nan;99563.03;5072098;28;20211;-75
2023/08/16 04:45:53;;;;;;;4.80;4.40;;;;;;;21.59;nan;99564.38;5071527;28;20235;-75
2023/08/16 04:48:19;;;;;;;6.00;4.47;;;;;;;21.52;nan;99561.56;5054574;28;20657;-75
2023/08/16 04:50:45;;;;;;;4.47;3.80;;;;;;;21.48;nan;99557.53;5052153;28;20196;-75
2023/08/16 04:53:10;;;;;;;6.03;4.43;;;;;;;21.47;nan;99571.06;5069453;28;20424;-75
2023/08/16 04:55:36;;;;;;;5.87;5.33;;;;;;;21.50;nan;99571.56;5073786;28;20838;-75
2023/08/16 04:58:02;;;;;;;5.70;5.20;;;;;;;21.52;nan;99577.59;5072873;28;20200;-75
2023/08/16 05:00:28;;;;;;;4.80;4.40;;;;;;;21.56;nan;99578.06;5054360;28;20303;-75
2023/08/16 05:02:56;;;;;;;4.63;4.23;;;;;;;21.56;nan;99578.91;5053931;28;20466;-75
2023/08/16 05:05:23;;;;;;;7.07;5.45;;;;;;;21.61;nan;99591.78;5054508;28;20440;-75
2023/08/16 05:07:48;;;;;;;6.57;5.00;;;;;;;21.74;nan;99586.75;5054504;28;20204;-75
2023/08/16 05:10:14;;;;;;;7.60;5.33;;;;;;;21.97;nan;99588.69;5073277;28;20617;-75
2023/08/16 05:12:39;;;;;;;9.03;4.30;;;;;;;22.22;nan;99576.09;5073970;28;20765;-75
2023/08/16 05:15:06;;;;;;;4.13;3.70;;;;;;;22.57;nan;99576.59;5074571;28;20219;-75
2023/08/16 05:17:31;;;;;;;4.90;4.40;;;;;;;22.94;nan;99583.88;5054281;28;20193;-76
2023/08/16 05:19:57;;;;;;;6.43;4.63;;;;;;;23.33;nan;99585.63;5057345;28;20435;-75
2023/08/16 05:22:24;;;;;;;4.37;4.03;;;;;;;23.76;nan;99583.25;5075986;28;20315;-75
2023/08/16 05:24:50;;;;;;;5.53;4.00;;;;;;;24.14;nan;99591.22;5078111;28;20196;-75
2023/08/16 05:27:15;;;;;;;6.37;4.30;;;;;;;24.53;nan;99587.41;5076638;28;20464;-75
2023/08/16 05:29:41;;;;;;;5.90;4.10;;;;;;;24.90;nan;99589.06;5078641;28;20191;-75
2023/08/16 05:32:06;;;;;;;4.37;3.97;;;;;;;25.31;nan;99578.53;5078013;28;20251;-75
2023/08/16 05:34:32;;;;;;;4.30;3.90;;;;;;;25.70;nan;99584.41;5077275;28;20832;-76
2023/08/16 05:36:57;;;;;;;4.95;4.55;;;;;;;26.19;nan;99575.41;5077465;28;20436;-75
2023/08/16 05:39:23;;;;;;;7.10;3.73;;;;;;;26.52;nan;99586.38;5077419;28;20300;-76
2023/08/16 05:41:48;;;;;;;4.37;4.00;;;;;;;26.78;nan;99584.78;5077828;28;23050;-76
2023/08/16 05:44:14;;;;;;;5.63;5.03;;;;;;;26.96;nan;99594.97;5076696;28;20338;-76
2023/08/16 05:46:39;;;;;;;4.60;4.10;;;;;;;27.16;nan;99598.53;5075447;28;20368;-76
2023/08/16 05:49:07;;;;;;;8.10;4.23;;;;;;;27.40;nan;99593.59;5051320;22;20299;-76
2023/08/16 05:51:33;;;;;;;6.23;4.27;;;;;;;27.47;nan;99595.25;5004899;28;20270;-75
2023/08/16 05:53:59;;;;;;;4.60;4.20;;;;;;;27.42;nan;99592.34;5015911;28;20923;-77
2023/08/16 05:56:24;;;;;;;10.50;5.00;;;;;;;27.44;nan;99594.84;5017623;28;20201;-75
2023/08/16 05:58:50;;;;;;;5.07;4.37;;;;;;;27.53;nan;99588.19;5013338;28;20955;-73
2023/08/16 06:01:15;;;;;;;5.30;4.13;;;;;;;27.64;nan;99594.84;5017489;28;20248;-77
2023/08/16 06:03:40;;;;;;;6.00;4.30;;;;;;;27.83;nan;99601.28;5015223;28;20445;-77
2023/08/16 06:06:06;;;;;;;5.73;5.03;;;;;;;28.04;nan;99600.22;5016317;28;20899;-76
2023/08/16 06:08:32;;;;;;;3.50;3.07;;;;;;;28.10;nan;99593.94;5014253;28;20206;-76
2023/08/16 06:10:57;;;;;;;6.67;5.87;;;;;;;28.09;nan;99598.53;5014160;28;20244;-77
2023/08/16 06:13:22;;;;;;;12.60;5.03;;;;;;;28.08;nan;99604.13;5013554;28;20232;-75
2023/08/16 06:15:48;;;;;;;7.00;5.17;;;;;;;28.16;nan;99599.31;5016863;28;20198;-76
2023/08/16 06:18:13;;;;;;;6.63;3.87;;;;;;;28.37;nan;99613.59;5013175;28;20206;-74
2023/08/16 06:20:39;;;;;;;4.80;3.90;;;;;;;28.68;nan;99602.09;4998797;28;20206;-76
2023/08/16 06:23:04;;;;;;;4.20;3.80;;;;;;;28.88;nan;99597.38;5012552;28;20190;-75
2023/08/16 06:25:30;;;;;;;3.67;3.30;;;;;;;28.95;nan;99608.16;5015128;28;20250;-75
2023/08/16 06:27:55;;;;;;;5.10;3.47;;;;;;;29.05;nan;99611.22;5016578;28;20500;-74
2023/08/16 06:30:20;;;;;;;7.90;3.90;;;;;;;29.29;nan;99609.59;5015099;28;20212;-75
2023/08/16 06:32:46;;;;;;;4.37;3.60;;;;;;;29.50;nan;99605.69;5013631;28;20202;-75
2023/08/16 06:35:11;;;;;;;3.47;2.83;;;;;;;29.52;nan;99614.44;5011228;28;20182;-75
2023/08/16 06:37:40;;;;;;;3.67;3.33;;;;;;;29.47;nan;99605.31;5018445;28;20344;-75
2023/08/16 06:40:07;;;;;;;3.50;3.17;;;;;;;29.43;nan;99601.38;5014115;28;20232;-76
2023/08/16 06:42:32;;;;;;;4.33;3.33;;;;;;;29.35;nan;99607.91;4999110;28;20466;-75
2023/08/16 06:44:59;;;;;;;5.57;3.37;;;;;;;29.41;nan;99611.59;5017078;28;20469;-74
2023/08/16 06:47:25;;;;;;;3.60;3.00;;;;;;;29.52;nan;99609.03;5015209;28;20752;-76
2023/08/16 06:49:50;;;;;;;3.87;3.50;;;;;;;29.77;nan;99611.72;5012926;28;20503;-77
2023/08/16 06:52:16;;;;;;;3.03;2.70;;;;;;;30.01;nan;99614.63;4996753;28;20198;-75
2023/08/16 06:54:42;;;;;;;5.30;3.17;;;;;;;30.09;nan;99614.34;5014420;28;20226;-77
2023/08/16 06:57:08;;;;;;;3.33;3.03;;;;;;;30.15;nan;99613.44;5015854;28;20195;-77
2023/08/16 06:59:35;;;;;;;4.80;2.70;;;;;;;30.24;nan;99610.44;5017914;28;21207;-75
2023/08/16 07:02:00;;;;;;;3.53;2.90;;;;;;;30.37;nan;99610.28;5014183;28;20570;-75
2023/08/16 07:04:26;;;;;;;3.27;2.97;;;;;;;30.30;nan;99610.38;4998772;28;20461;-75
2023/08/16 07:06:51;;;;;;;5.07;3.90;;;;;;;30.14;nan;99606.38;5017368;28;20437;-76
2023/08/16 07:09:17;;;;;;;3.23;2.90;;;;;;;29.79;nan;99616.94;5016778;28;20865;-76
2023/08/16 07:11:42;;;;;;;3.20;3.00;;;;;;;29.54;nan;99611.50;5015691;28;20223;-76
2023/08/16 07:14:08;;;;;;;7.93;3.00;;;;;;;29.46;nan;99609.06;5016005;28;20249;-74
2023/08/16 07:16:35;;;;;;;4.07;3.50;;;;;;;29.51;nan;99609.22;5016160;28;20237;-77
2023/08/16 07:19:00;;;;;;;4.27;3.20;;;;;;;29.59;nan;99617.06;5016696;28;20218;-76
2023/08/16 07:21:26;;;;;;;4.30;3.80;;;;;;;29.69;nan;99624.72;5014163;28;20449;-75
2023/08/16 07:23:51;;;;;;;4.47;3.40;;;;;;;29.94;nan;99616.56;5017790;28;20266;-74
2023/08/16 07:26:17;;;;;;;4.90;3.20;;;;;;;30.18;nan;99617.56;5015214;28;20680;-77
2023/08/16 07:28:42;;;;;;;6.07;4.07;;;;;;;30.38;nan;99623.63;5013217;28;20461;-75
2023/08/16 07:31:08;;;;;;;3.33;2.97;;;;;;;30.44;nan;99608.34;5013243;28;20194;-76
2023/08/16 07:33:35;;;;;;;2.90;2.70;;;;;;;30.62;nan;99613.75;5016910;28;20201;-77
2023/08/16 07:36:01;;;;;;;3.40;3.10;;;;;;;30.73;nan;99620.28;5016090;28;20244;-75
2023/08/16 07:38:28;;;;;;;4.40;3.40;;;;;;;30.86;nan;99614.69;5012307;28;20507;-77
2023/08/16 07:40:54;;;;;;;3.20;2.90;;;;;;;30.88;nan;99614.47;5014953;28;20472;-77
2023/08/16 07:43:19;;;;;;;3.70;3.40;;;;;;;30.97;nan;99614.94;5011130;28;20499;-75
2023/08/16 07:45:45;;;;;;;3.67;3.37;;;;;;;30.99;nan;99613.66;5014521;28;20243;-75
2023/08/16 07:48:10;;;;;;;3.33;3.03;;;;;;;30.98;nan;99619.34;5009649;28;20238;-76
2023/08/16 07:50:36;;;;;;;4.07;3.10;;;;;;;31.02;nan;99624.06;5016054;28;20252;-75
2023/08/16 07:53:02;;;;;;;3.30;3.00;;;;;;;31.15;nan;99619.50;5011245;28;20304;-77
2023/08/16 07:55:32;;;;;;;4.63;3.37;;;;;;;31.22;nan;99620.25;5010162;28;20272;-76
2023/08/16 07:57:58;;;;;;;2.80;2.60;;;;;;;31.37;nan;99622.53;5012806;28;20477;-76
2023/08/16 08:00:23;;;;;;;3.83;3.43;;;;;;;31.65;nan;99614.53;5010262;28;20559;-75
2023/08/16 08:02:48;;;;;;;4.40;3.53;;;;;;;31.86;nan;99623.97;5010242;28;20818;-76
2023/08/16 08:05:15;;;;;;;3.83;3.43;;;;;;;32.00;nan;99624.59;5013040;28;21073;-76
2023/08/16 08:07:40;;;;;;;8.80;3.57;;;;;;;32.03;nan;99629.56;5016142;28;20252;-77
2023/08/16 08:10:07;;;;;;;3.70;3.40;;;;;;;32.13;nan;99624.34;5012100;28;20457;-75
2023/08/16 08:12:32;;;;;;;4.40;3.27;;;;;;;32.26;nan;99628.69;5012729;28;20202;-76
2023/08/16 08:14:58;;;;;;;5.43;3.80;;;;;;;32.52;nan;99626.53;5011279;28;20468;-77
2023/08/16 08:17:24;;;;;;;3.43;2.93;;;;;;;32.75;nan;99631.88;5012910;28;20198;-76
2023/08/16 08:19:49;;;;;;;3.03;2.73;;;;;;;32.86;nan;99632.09;5010821;28;20727;-76
2023/08/16 08:22:15;;;;;;;3.70;3.40;;;;;;;32.92;nan;99628.38;5013033;28;20436;-75
2023/08/16 08:24:40;;;;;;;3.53;3.23;;;;;;;32.84;nan;99629.63;5012211;28;20948;-76
2023/08/16 08:27:06;;;;;;;5.67;3.30;;;;;;;32.84;nan;99630.44;5017769;28;20232;-76
2023/08/16 08:29:31;;;;;;;3.77;3.47;;;;;;;32.86;nan;99627.47;5017327;28;20201;-75
2023/08/16 08:31:56;;;;;;;3.70;3.37;;;;;;;32.81;nan;99628.22;5014246;28;20280;-76
2023/08/16 08:34:24;;;;;;;3.30;3.00;;;;;;;32.59;nan;99628.06;5011845;28;20656;-76
2023/08/16 08:36:49;;;;;;;5.43;4.93;;;;;;;32.51;nan;99631.13;5016669;28;20456;-77
2023/08/16 08:39:18;;;;;;;5.53;3.90;;;;;;;32.53;nan;99634.44;5013788;28;20297;-77
2023/08/16 08:41:46;;;;;;;3.90;3.60;;;;;;;32.42;nan;99627.13;5013287;28;20578;-76
2023/08/16 08:44:13;;;;;;;2.90;2.70;;;;;;;32.25;nan;99627.03;5014860;28;20546;-75
2023/08/16 08:46:44;;;;;;;3.70;3.40;;;;;;;32.03;nan;99629.56;5015606;28;20501;-76
2023/08/16 08:49:10;;;;;;;5.77;3.40;;;;;;;31.87;nan;99631.06;5016723;28;20480;-76
2023/08/16 08:51:37;;;;;;;4.37;4.07;;;;;;;31.92;nan;99627.66;5014630;28;20837;-75
2023/08/16 08:54:03;;;;;;;7.20;3.70;;;;;;;31.92;nan;99627.66;5017845;28;21314;-75
2023/08/16 08:56:30;;;;;;;3.97;3.67;;;;;;;31.78;nan;99627.03;5018594;28;20464;-75
2023/08/16 08:58:59;;;;;;;3.63;3.33;;;;;;;31.47;nan;99634.47;5018254;28;20750;-75
2023/08/16 09:01:25;;;;;;;3.73;3.43;;;;;;;31.26;nan;99629.56;5022056;28;20758;-76
2023/08/16 09:03:52;;;;;;;4.63;4.33;;;;;;;31.17;nan;99633.66;5016531;28;20936;-76
2023/08/16 09:06:18;;;;;;;3.73;3.40;;;;;;;31.19;nan;99624.25;5015653;28;20487;-75
2023/08/16 09:08:45;;;;;;;4.70;4.30;;;;;;;31.18;nan;99627.16;5018242;28;20969;-75
2023/08/16 09:11:13;;;;;;;3.83;3.33;;;;;;;31.19;nan;99617.97;5019850;28;20929;-77
2023/08/16 09:13:39;;;;;;;4.33;3.63;;;;;;;31.01;nan;99624.28;5017654;28;20539;-75
2023/08/16 09:16:04;;;;;;;6.53;3.80;;;;;;;30.78;nan;99625.81;5014016;28;20464;-75
2023/08/16 09:18:30;;;;;;;3.80;3.50;;;;;;;30.71;nan;99621.56;5017992;28;20464;-77
2023/08/16 09:20:59;;;;;;;4.10;3.80;;;;;;;30.80;nan;99614.75;5016461;28;20214;-75
2023/08/16 09:23:25;;;;;;;4.43;3.23;;;;;;;30.91;nan;99610.47;5016398;28;20453;-76
2023/08/16 09:25:51;;;;;;;4.17;3.80;;;;;;;30.94;nan;99608.09;5016309;28;20586;-76
2023/08/16 09:28:17;;;;;;;5.50;3.47;;;;;;;31.04;nan;99602.94;5014940;28;20902;-76
2023/08/16 09:30:42;;;;;;;5.80;4.03;;;;;;;31.15;nan;99604.03;5017370;28;20453;-76
2023/08/16 09:33:12;;;;;;;4.10;3.80;;;;;;;31.18;nan;99606.28;5022034;28;20457;-76
2023/08/16 09:35:43;;;;;;;5.40;4.33;;;;;;;31.24;nan;99597.22;5022147;28;20649;-76
2023/08/16 09:38:09;;;;;;;3.80;3.50;;;;;;;31.28;nan;99600.31;5015264;28;20579;-76
2023/08/16 09:40:35;;;;;;;3.80;3.50;;;;;;;31.32;nan;99601.47;5021224;28;20474;-76
2023/08/16 09:43:01;;;;;;;4.67;3.27;;;;;;;31.47;nan;99590.22;5021146;28;20190;-76
2023/08/16 09:45:31;;;;;;;3.67;3.27;;;;;;;31.56;nan;99590.69;5022016;28;20907;-75
2023/08/16 09:47:59;;;;;;;4.23;3.70;;;;;;;31.61;nan;99582.66;5022818;28;20627;-76
2023/08/16 09:50:26;;;;;;;4.30;4.00;;;;;;;31.56;nan;99591.50;5024089;28;20959;-75
2023/08/16 09:52:52;;;;;;;4.00;3.70;;;;;;;31.55;nan;99580.91;5020534;28;20449;-75
2023/08/16 09:55:26;;;;;;;4.10;3.70;;;;;;;31.36;nan;99580.97;5019061;28;20448;-75
2023/08/16 09:57:53;;;;;;;4.90;3.80;;;;;;;31.40;nan;99570.47;5017130;28;20572;-76
2023/08/16 10:00:19;;;;;;;4.00;3.60;;;;;;;31.47;nan;99579.34;5020526;28;20862;-76
2023/08/16 10:02:47;;;;;;;4.93;4.17;;;;;;;31.32;nan;99571.63;5020976;28;20549;-75
2023/08/16 10:05:13;;;;;;;6.33;4.17;;;;;;;31.08;nan;99566.19;5020467;28;20605;-75
2023/08/16 10:07:40;;;;;;;5.10;3.60;;;;;;;30.92;nan;99568.72;5009936;28;20812;-76
2023/08/16 10:10:09;;;;;;;3.90;3.30;;;;;;;30.98;nan;99576.75;5015300;28;20251;-76
2023/08/16 10:12:36;;;;;;;5.13;4.30;;;;;;;31.07;nan;99569.94;5021587;28;20453;-74
2023/08/16 10:15:02;;;;;;;4.97;4.50;;;;;;;31.16;nan;99569.59;5018887;28;20460;-75
2023/08/16 10:17:28;;;;;;;4.00;3.63;;;;;;;31.20;nan;99560.75;5021050;28;20465;-75
2023/08/16 10:20:00;;;;;;;5.20;3.90;;;;;;;31.14;nan;99564.41;5017053;28;20695;-74
2023/08/16 10:22:42;;;;;;;4.63;4.20;;;;;;;31.13;nan;99564.63;5019648;28;20460;-74
2023/08/16 10:25:23;;;;;;;4.27;3.73;;;;;;;31.16;nan;99564.97;5017679;28;20469;-74
2023/08/16 10:27:50;;;;;;;4.90;4.40;;;;;;;31.25;nan;99558.16;5018994;28;20780;-75
2023/08/16 10:30:23;;;;;;;4.30;3.33;;;;;;;31.39;nan;99547.13;5019055;28;20464;-74
2023/08/16 10:33:07;;;;;;;5.20;4.40;;;;;;;31.53;nan;99543.94;5016145;28;20506;-75
2023/08/16 10:35:34;;;;;;;5.20;3.57;;;;;;;31.72;nan;99538.38;5020260;28;21177;-74
2023/08/16 10:38:01;;;;;;;4.53;4.20;;;;;;;31.89;nan;99533.88;5019314;28;20993;-75
2023/08/16 10:40:26;;;;;;;5.90;4.10;;;;;;;32.05;nan;99528.78;5016416;28;20469;-76
2023/08/16 10:42:54;;;;;;;4.27;3.80;;;;;;;32.11;nan;99530.56;5018784;28;20460;-74
2023/08/16 10:45:27;;;;;;;4.97;4.50;;;;;;;32.22;nan;99534.28;5019969;28;20597;-75
2023/08/16 10:47:54;;;;;;;4.47;4.13;;;;;;;32.31;nan;99533.66;4997901;28;20472;-75
2023/08/16 10:50:19;;;;;;;4.97;4.17;;;;;;;32.47;nan;99525.84;5013399;28;20825;-75
2023/08/16 10:52:48;;;;;;;4.53;4.13;;;;;;;32.59;nan;99529.31;5013479;28;20996;-75
2023/08/16 10:55:23;;;;;;;5.00;4.60;;;;;;;32.59;nan;99523.88;5017542;28;20201;-76
2023/08/16 10:57:50;;;;;;;4.00;3.70;;;;;;;32.54;nan;99521.06;5011534;28;20869;-76
2023/08/16 11:00:19;;;;;;;7.20;3.67;;;;;;;32.35;nan;99518.53;5018262;28;20475;-74
2023/08/16 11:02:48;;;;;;;6.97;4.53;;;;;;;32.33;nan;99519.84;5017627;28;20464;-74
2023/08/16 11:05:20;;;;;;;4.53;4.13;;;;;;;32.30;nan;99523.88;5019161;28;20495;-76
2023/08/16 11:07:46;;;;;;;6.17;4.83;;;;;;;32.16;nan;99525.19;5016885;28;20976;-76
2023/08/16 11:10:12;;;;;;;3.93;3.63;;;;;;;32.12;nan;99521.31;5019270;28;20452;-76
2023/08/16 11:12:38;;;;;;;4.23;3.80;;;;;;;32.12;nan;99516.72;5014063;28;20205;-74
2023/08/16 11:15:04;;;;;;;4.77;4.00;;;;;;;32.16;nan;99508.88;5016338;28;20232;-75
2023/08/16 11:17:30;;;;;;;4.50;4.10;;;;;;;32.18;nan;99504.88;5024071;28;20457;-74
2023/08/16 11:19:55;;;;;;;5.67;4.37;;;;;;;32.25;nan;99512.91;5023219;28;20822;-76
2023/08/16 11:22:22;;;;;;;4.23;3.83;;;;;;;32.33;nan;99511.69;5016156;28;20206;-75
2023/08/16 11:24:49;;;;;;;4.30;3.90;;;;;;;32.38;nan;99511.78;5016890;28;20306;-75
2023/08/16 11:27:22;;;;;;;4.97;4.10;;;;;;;32.42;nan;99509.41;5018964;28;20846;-76
2023/08/16 11:29:54;;;;;;;5.23;4.73;;;;;;;32.49;nan;99504.69;5000313;28;20508;-76
2023/08/16 11:32:35;;;;;;;4.53;4.23;;;;;;;32.59;nan;99505.69;5017489;28;20461;-76
2023/08/16 11:35:00;;;;;;;4.23;3.50;;;;;;;32.69;nan;99498.78;5018087;28;20921;-76
2023/08/16 11:37:26;;;;;;;5.77;3.90;;;;;;;32.55;nan;99492.81;4995986;28;21016;-75
2023/08/16 11:40:02;;;;;;;5.47;3.93;;;;;;;32.52;nan;99498.75;5014123;28;20308;-74
2023/08/16 11:42:28;;;;;;;4.00;3.70;;;;;;;32.55;nan;99493.63;5017233;28;20213;-76
2023/08/16 11:44:54;;;;;;;3.77;3.47;;;;;;;32.48;nan;99490.25;5015068;28;20467;-75
2023/08/16 11:47:19;;;;;;;6.40;4.50;;;;;;;32.41;nan;99484.13;5016815;28;20457;-75
2023/08/16 11:49:47;;;;;;;5.10;4.63;;;;;;;32.43;nan;99476.50;5046353;22;20355;-76